Time;durP1;ratioP1;P1;durP2;ratioP2;P2;SDS_P1;SDS_P2;PMS_P1;PMS_P2;Temp;Humidity;BMP_temperature;BMP_pressure;BME280_temperature;BME280_humidity;BME280_pressure;Samples;Min_cycle;Max_cycle;Signal;HPM_P1;HPM_P2
2022/08/23 00:00:59;;;;;;;2.20;1.55;;;24.90;76.10;;;;;;5053335;28;20451;-26
2022/08/23 00:03:25;;;;;;;2.50;1.52;;;24.90;76.10;;;;;;5053309;28;20213;-25
2022/08/23 00:05:51;;;;;;;2.25;1.67;;;24.90;76.10;;;;;;5051891;28;20478;-25
2022/08/23 00:08:17;;;;;;;2.47;1.83;;;24.90;76.10;;;;;;5053304;28;20021;-25
2022/08/23 00:10:42;;;;;;;1.45;1.35;;;24.90;76.10;;;;;;5053026;28;20025;-24
2022/08/23 00:13:09;;;;;;;2.88;1.63;;;24.90;76.20;;;;;;5051968;28;20431;-25
2022/08/23 00:15:35;;;;;;;2.40;1.70;;;24.90;76.10;;;;;;5053022;28;20401;-25
2022/08/23 00:18:00;;;;;;;1.90;1.70;;;24.90;76.20;;;;;;5053031;28;20017;-25
2022/08/23 00:20:26;;;;;;;3.92;1.70;;;24.90;77.00;;;;;;5051435;28;20040;-25
2022/08/23 00:22:52;;;;;;;3.50;1.90;;;24.90;76.20;;;;;;5052856;28;20024;-27
2022/08/23 00:25:18;;;;;;;2.03;1.80;;;24.90;76.20;;;;;;5052489;28;20028;-24
2022/08/23 00:27:44;;;;;;;2.40;1.63;;;24.90;76.20;;;;;;5052813;28;20382;-25
2022/08/23 00:30:11;;;;;;;1.92;1.70;;;24.90;76.30;;;;;;5052494;28;20021;-26
2022/08/23 00:32:37;;;;;;;2.10;1.70;;;24.90;76.20;;;;;;5052495;28;20025;-25
2022/08/23 00:35:04;;;;;;;2.15;1.70;;;24.80;76.10;;;;;;5052051;28;20021;-25
2022/08/23 00:37:31;;;;;;;2.75;1.60;;;24.80;76.20;;;;;;5052748;28;20020;-25
2022/08/23 00:39:58;;;;;;;3.28;1.70;;;24.80;76.20;;;;;;5052206;28;20032;-24
2022/08/23 00:48:22;;;;;;;3.25;1.63;;;24.80;76.20;;;;;;5052367;28;20040;-24
2022/08/23 00:51:06;;;;;;;2.40;1.80;;;24.80;76.30;;;;;;5052236;28;20053;-25
2022/08/23 00:53:37;;;;;;;4.47;1.80;;;24.80;76.30;;;;;;5052291;28;20032;-25
2022/08/23 00:56:07;;;;;;;3.20;1.80;;;24.80;76.20;;;;;;5052174;28;20029;-26
2022/08/23 00:58:34;;;;;;;2.05;1.70;;;24.80;77.10;;;;;;5050797;28;20078;-25
2022/08/23 01:01:02;;;;;;;1.83;1.60;;;24.80;76.30;;;;;;5052134;28;20032;-25
2022/08/23 01:03:30;;;;;;;2.38;1.73;;;24.80;76.30;;;;;;5052069;28;20029;-25
2022/08/23 01:05:57;;;;;;;2.75;1.60;;;24.80;76.30;;;;;;5051846;28;20429;-25
2022/08/23 01:08:25;;;;;;;3.25;1.80;;;24.80;76.30;;;;;;5052009;28;20397;-25
2022/08/23 01:10:56;;;;;;;2.33;1.60;;;24.80;76.30;;;;;;5052113;28;20029;-24
2022/08/23 01:14:04;;;;;;;4.55;1.80;;;24.80;76.40;;;;;;5052092;28;20017;-25
2022/08/23 01:16:56;;;;;;;3.15;2.03;;;24.80;76.30;;;;;;5052002;28;20025;-25
2022/08/23 01:19:31;;;;;;;2.42;1.80;;;24.80;76.30;;;;;;5051868;28;20028;-25
2022/08/23 01:22:12;;;;;;;2.40;1.67;;;24.80;76.30;;;;;;5052043;28;20032;-26
2022/08/23 01:24:38;;;;;;;2.25;1.65;;;24.80;76.50;;;;;;5051691;28;20056;-24
2022/08/23 01:27:05;;;;;;;2.05;1.67;;;24.70;76.40;;;;;;5051881;28;20016;-25
2022/08/23 01:29:31;;;;;;;2.10;1.70;;;24.70;76.30;;;;;;5051779;28;20479;-27
2022/08/23 01:31:57;;;;;;;2.65;1.60;;;24.70;76.40;;;;;;5051874;28;20364;-24
2022/08/23 01:34:27;;;;;;;2.55;1.60;;;24.70;76.40;;;;;;5051827;28;20020;-24
2022/08/23 01:36:54;;;;;;;1.80;1.60;;;24.70;76.40;;;;;;5051858;28;20033;-25
2022/08/23 01:39:20;;;;;;;2.40;1.80;;;24.70;76.40;;;;;;5051487;28;20044;-25
2022/08/23 01:41:45;;;;;;;2.50;1.80;;;24.70;76.40;;;;;;5051787;28;20413;-25
2022/08/23 01:44:12;;;;;;;1.95;1.50;;;24.70;76.40;;;;;;5051855;28;20100;-25
2022/08/23 01:46:38;;;;;;;3.03;1.88;;;24.70;76.40;;;;;;5051788;28;20032;-24
2022/08/23 01:49:04;;;;;;;2.55;1.83;;;24.70;76.40;;;;;;5055659;28;20025;-24
2022/08/23 01:51:31;;;;;;;2.08;1.88;;;24.70;76.40;;;;;;5055687;28;20024;-26
2022/08/23 01:53:56;;;;;;;2.83;1.75;;;24.70;76.40;;;;;;5055487;28;20108;-25
2022/08/23 01:56:23;;;;;;;3.08;1.45;;;24.70;76.40;;;;;;5055622;28;20438;-25
2022/08/23 01:58:50;;;;;;;2.22;1.70;;;24.70;76.40;;;;;;5055573;28;20517;-25
2022/08/23 02:01:17;;;;;;;5.07;1.70;;;24.70;76.40;;;;;;5055888;28;20109;-24
2022/08/23 02:03:44;;;;;;;1.60;1.48;;;24.70;76.40;;;;;;5055557;28;20025;-23
2022/08/23 02:06:11;;;;;;;2.10;1.90;;;24.60;76.40;;;;;;5053999;28;20032;-26
2022/08/23 02:11:23;;;;;;;2.28;1.70;;;24.60;76.40;;;;;;5055636;28;20032;-25
2022/08/23 02:13:50;;;;;;;2.72;1.65;;;24.60;76.50;;;;;;5055336;28;20029;-24
2022/08/23 02:16:28;;;;;;;2.58;1.60;;;24.60;76.50;;;;;;5055301;28;20037;-26
2022/08/23 02:18:55;;;;;;;2.00;1.58;;;24.60;76.50;;;;;;5054926;28;20017;-24
2022/08/23 02:21:21;;;;;;;3.63;1.92;;;24.60;76.50;;;;;;5055203;28;20029;-24
2022/08/23 02:23:47;;;;;;;2.92;1.60;;;24.60;76.50;;;;;;5055179;28;20513;-25
2022/08/23 02:26:14;;;;;;;2.97;1.80;;;24.60;76.40;;;;;;5054856;28;20104;-25
2022/08/23 02:28:40;;;;;;;2.50;1.95;;;24.60;76.50;;;;;;5054962;28;20531;-24
2022/08/23 02:31:06;;;;;;;2.60;1.77;;;24.60;76.50;;;;;;5054961;28;20033;-24
2022/08/23 02:33:32;;;;;;;2.10;1.90;;;24.60;76.50;;;;;;5054864;28;20021;-24
2022/08/23 02:35:57;;;;;;;2.67;1.65;;;24.60;76.50;;;;;;5054860;28;20057;-25
2022/08/23 02:38:23;;;;;;;2.15;1.75;;;24.50;76.50;;;;;;5054805;28;20024;-24
2022/08/23 02:40:49;;;;;;;1.73;1.40;;;24.50;76.50;;;;;;5054729;28;20029;-25
2022/08/23 02:43:15;;;;;;;1.73;1.63;;;24.50;76.50;;;;;;5054786;28;20025;-26
2022/08/23 02:45:41;;;;;;;2.55;1.80;;;24.50;76.50;;;;;;5054609;28;20025;-28
2022/08/23 02:48:08;;;;;;;2.72;2.00;;;24.50;76.50;;;;;;5054558;28;20029;-29
2022/08/23 02:50:35;;;;;;;2.38;1.70;;;24.50;76.50;;;;;;5054519;28;20017;-30
2022/08/23 02:53:01;;;;;;;2.10;1.80;;;24.50;76.60;;;;;;5054601;28;20043;-29
2022/08/23 02:55:26;;;;;;;2.53;1.77;;;24.50;76.60;;;;;;5054567;28;20482;-28
2022/08/23 02:57:52;;;;;;;2.58;1.65;;;24.50;76.60;;;;;;5054045;28;20051;-27
2022/08/23 03:00:19;;;;;;;1.95;1.50;;;24.50;76.60;;;;;;5054246;28;20021;-24
2022/08/23 03:02:45;;;;;;;2.65;1.63;;;24.50;76.60;;;;;;5054261;28;20442;-25
2022/08/23 03:05:11;;;;;;;1.80;1.60;;;24.50;76.60;;;;;;5054244;28;20103;-26
2022/08/23 03:07:37;;;;;;;2.00;1.70;;;24.50;76.60;;;;;;5054250;28;20486;-24
2022/08/23 03:10:05;;;;;;;2.47;1.85;;;24.50;76.60;;;;;;5054067;28;20033;-25
2022/08/23 03:12:31;;;;;;;2.30;1.80;;;24.50;76.60;;;;;;5054111;28;20017;-23
2022/08/23 03:14:56;;;;;;;2.13;1.80;;;24.50;76.60;;;;;;5054188;28;20443;-23
2022/08/23 03:17:22;;;;;;;1.70;1.60;;;24.50;76.70;;;;;;5054024;28;20104;-23
2022/08/23 03:19:48;;;;;;;2.33;1.67;;;24.50;76.60;;;;;;5054034;28;20116;-26
2022/08/23 03:22:14;;;;;;;2.30;1.70;;;24.40;76.60;;;;;;5053960;28;20108;-22
2022/08/23 03:24:40;;;;;;;2.55;1.70;;;24.40;76.60;;;;;;5053959;28;20029;-25
2022/08/23 03:27:05;;;;;;;2.13;1.70;;;24.40;76.60;;;;;;5053899;28;20025;-24
2022/08/23 03:29:32;;;;;;;2.55;1.77;;;24.40;76.60;;;;;;5053664;28;20449;-28
2022/08/23 03:31:59;;;;;;;1.63;1.52;;;24.40;76.60;;;;;;5053691;28;20513;-23
2022/08/23 03:34:24;;;;;;;2.75;1.85;;;24.40;76.60;;;;;;5052399;28;20032;-22
2022/08/23 03:36:50;;;;;;;2.25;1.60;;;24.40;76.60;;;;;;5052332;28;20021;-25
2022/08/23 03:39:16;;;;;;;2.00;1.80;;;24.40;76.70;;;;;;5053518;28;20123;-23
2022/08/23 03:41:42;;;;;;;2.03;1.65;;;24.40;76.70;;;;;;5053589;28;20060;-24
2022/08/23 03:44:07;;;;;;;2.75;1.90;;;24.40;76.70;;;;;;5053610;28;20032;-23
2022/08/23 03:46:33;;;;;;;2.05;1.50;;;24.40;76.70;;;;;;5053355;28;20429;-23
2022/08/23 03:49:01;;;;;;;2.67;2.00;;;24.40;76.70;;;;;;5053422;28;20047;-23
2022/08/23 03:51:29;;;;;;;2.20;1.80;;;24.30;76.70;;;;;;5053380;28;20029;-24
2022/08/23 03:53:54;;;;;;;2.80;1.85;;;24.40;76.70;;;;;;5053303;28;20042;-25
2022/08/23 03:56:31;;;;;;;2.83;1.60;;;24.30;77.40;;;;;;5053389;28;20029;-24
2022/08/23 03:59:00;;;;;;;2.00;1.60;;;24.30;76.70;;;;;;5053043;28;20051;-23
2022/08/23 04:01:25;;;;;;;1.92;1.70;;;24.30;76.70;;;;;;5053148;28;20040;-22
2022/08/23 04:03:51;;;;;;;2.17;1.60;;;24.30;76.70;;;;;;5053431;28;20099;-25
2022/08/23 04:06:18;;;;;;;2.15;1.95;;;24.30;76.70;;;;;;5053028;28;20024;-27
2022/08/23 04:08:44;;;;;;;2.30;1.80;;;24.30;76.70;;;;;;5052982;28;20508;-24
2022/08/23 04:11:12;;;;;;;3.58;1.80;;;24.30;76.70;;;;;;5050845;28;20025;-23
2022/08/23 04:13:39;;;;;;;1.67;1.52;;;24.30;76.70;;;;;;5052902;28;20439;-23
2022/08/23 04:16:06;;;;;;;4.03;1.90;;;24.30;76.70;;;;;;5052913;28;20306;-22
2022/08/23 04:18:33;;;;;;;2.85;1.75;;;24.30;76.80;;;;;;5052882;28;20025;-25
2022/08/23 04:21:01;;;;;;;2.22;1.67;;;24.30;76.80;;;;;;5052802;28;20063;-31
2022/08/23 04:23:26;;;;;;;2.25;1.52;;;24.20;76.80;;;;;;5052831;28;20025;-30
2022/08/23 04:25:53;;;;;;;3.03;1.90;;;24.20;76.70;;;;;;5052446;28;20037;-29
2022/08/23 04:28:19;;;;;;;2.10;1.80;;;24.30;76.80;;;;;;5052725;28;20025;-25
2022/08/23 04:30:45;;;;;;;2.13;1.60;;;24.20;76.80;;;;;;5052566;28;20425;-30
2022/08/23 04:33:11;;;;;;;3.13;1.70;;;24.20;76.80;;;;;;5052627;28;20524;-28
2022/08/23 04:35:38;;;;;;;3.15;1.73;;;24.20;76.80;;;;;;5052489;28;20029;-30
2022/08/23 04:38:03;;;;;;;2.92;1.67;;;24.20;76.80;;;;;;5052651;28;20413;-29
2022/08/23 04:43:13;;;;;;;2.20;1.80;;;24.20;76.80;;;;;;5052627;28;20395;-28
2022/08/23 04:45:39;;;;;;;1.90;1.63;;;24.20;76.80;;;;;;5052426;28;20033;-30
2022/08/23 04:48:06;;;;;;;1.98;1.75;;;24.20;76.90;;;;;;5052503;28;20457;-29
2022/08/23 04:50:32;;;;;;;2.53;1.88;;;24.20;76.90;;;;;;5050841;28;20131;-32
2022/08/23 04:52:58;;;;;;;2.20;1.60;;;24.20;76.90;;;;;;5052317;28;20104;-30
2022/08/23 04:55:23;;;;;;;3.38;2.05;;;24.20;76.90;;;;;;5052387;28;20104;-29
2022/08/23 04:57:49;;;;;;;1.98;1.58;;;24.20;77.00;;;;;;5052349;28;20570;-30
2022/08/23 05:00:15;;;;;;;2.83;1.80;;;24.10;76.90;;;;;;5051948;28;20028;-26
2022/08/23 05:02:42;;;;;;;1.83;1.60;;;24.10;76.90;;;;;;5052389;28;20029;-30
2022/08/23 05:05:09;;;;;;;2.42;1.63;;;24.10;77.00;;;;;;5052324;28;20021;-28
2022/08/23 05:07:36;;;;;;;1.80;1.52;;;24.10;77.00;;;;;;5052344;28;20025;-29
2022/08/23 05:10:03;;;;;;;2.92;1.70;;;24.10;77.00;;;;;;5052379;28;20025;-30
2022/08/23 05:12:29;;;;;;;2.08;1.70;;;24.10;77.10;;;;;;5052527;28;20493;-32
2022/08/23 05:14:55;;;;;;;3.28;1.63;;;24.10;77.10;;;;;;5052150;28;20013;-29
2022/08/23 05:17:21;;;;;;;2.70;1.63;;;24.10;77.10;;;;;;5052396;28;20036;-31
2022/08/23 05:19:47;;;;;;;2.42;1.80;;;24.00;77.00;;;;;;5052271;28;20056;-27
2022/08/23 05:22:12;;;;;;;2.20;1.63;;;24.10;77.20;;;;;;5052067;28;20037;-29
2022/08/23 05:24:38;;;;;;;2.45;1.88;;;24.10;77.20;;;;;;5052881;28;20021;-32
2022/08/23 05:27:04;;;;;;;2.80;1.73;;;24.10;77.20;;;;;;5075871;22;20055;-24
2022/08/23 05:29:30;;;;;;;2.60;1.92;;;24.00;77.20;;;;;;5051789;28;20092;-24
2022/08/23 05:31:56;;;;;;;2.08;1.80;;;24.00;77.10;;;;;;5052090;28;20053;-24
2022/08/23 05:34:22;;;;;;;2.40;1.67;;;24.00;77.10;;;;;;5051712;28;20028;-24
2022/08/23 05:36:48;;;;;;;1.83;1.42;;;24.00;77.10;;;;;;5051747;28;20025;-24
2022/08/23 05:39:14;;;;;;;2.80;1.75;;;24.00;77.20;;;;;;5051682;28;20032;-24
2022/08/23 05:41:41;;;;;;;2.05;1.75;;;24.00;77.20;;;;;;5051814;28;20048;-25
2022/08/23 05:44:09;;;;;;;2.15;1.67;;;24.00;77.20;;;;;;5051768;28;20460;-24
2022/08/23 05:46:35;;;;;;;2.55;1.80;;;24.00;77.20;;;;;;5051605;28;20032;-24
2022/08/23 05:49:01;;;;;;;3.22;1.65;;;24.00;77.20;;;;;;5051474;28;20075;-24
2022/08/23 05:51:30;;;;;;;2.53;1.73;;;24.00;77.20;;;;;;5051849;28;20544;-24
2022/08/23 05:54:13;;;;;;;2.58;1.77;;;24.00;77.30;;;;;;5051690;28;20025;-24
2022/08/23 05:56:41;;;;;;;1.85;1.60;;;24.00;77.30;;;;;;5051748;28;20037;-24
2022/08/23 05:59:10;;;;;;;2.40;1.73;;;24.00;77.30;;;;;;5051496;28;20557;-25
2022/08/23 06:01:36;;;;;;;2.13;1.60;;;24.00;77.30;;;;;;5051451;28;20060;-24
2022/08/23 06:04:04;;;;;;;2.03;1.50;;;24.00;77.40;;;;;;5051631;28;20021;-24
2022/08/23 06:06:31;;;;;;;2.50;1.85;;;24.00;77.40;;;;;;5051499;28;20029;-24
2022/08/23 06:08:57;;;;;;;2.92;1.88;;;24.00;77.40;;;;;;5051423;28;20028;-24
2022/08/23 06:11:26;;;;;;;2.00;1.55;;;23.90;77.40;;;;;;5051448;28;20029;-24
2022/08/23 06:14:00;;;;;;;2.85;1.77;;;23.90;77.40;;;;;;5051353;28;20024;-24
2022/08/23 06:16:35;;;;;;;2.95;1.70;;;23.90;77.40;;;;;;5051540;28;20071;-24
2022/08/23 06:19:02;;;;;;;2.50;1.60;;;23.90;77.40;;;;;;5051424;28;20025;-24
2022/08/23 06:21:28;;;;;;;1.63;1.48;;;23.90;77.50;;;;;;5051413;28;20029;-25
2022/08/23 06:23:54;;;;;;;2.38;1.80;;;23.90;77.50;;;;;;5051604;28;20036;-24
2022/08/23 06:26:32;;;;;;;3.10;2.10;;;23.90;77.50;;;;;;5051166;28;20033;-24
2022/08/23 06:29:01;;;;;;;2.17;1.83;;;23.90;77.60;;;;;;5051266;28;20486;-25
2022/08/23 06:31:47;;;;;;;2.58;1.80;;;23.90;77.60;;;;;;5051503;28;20040;-24
2022/08/23 06:34:15;;;;;;;5.32;1.60;;;23.90;77.60;;;;;;5053943;28;20104;-24
2022/08/23 06:36:41;;;;;;;1.90;1.63;;;23.90;77.60;;;;;;5054894;28;20147;-24
2022/08/23 06:39:09;;;;;;;2.42;1.77;;;23.90;77.60;;;;;;5054629;28;20115;-24
2022/08/23 06:41:35;;;;;;;2.42;1.60;;;23.90;77.60;;;;;;5054898;28;20074;-24
2022/08/23 06:44:02;;;;;;;2.38;1.65;;;23.90;77.70;;;;;;5054866;28;20037;-25
2022/08/23 06:46:28;;;;;;;1.98;1.60;;;23.90;77.70;;;;;;5054760;28;20029;-24
2022/08/23 06:48:56;;;;;;;1.70;1.60;;;23.90;77.70;;;;;;5054662;28;20090;-24
2022/08/23 06:51:24;;;;;;;2.13;1.65;;;23.90;77.70;;;;;;5054624;28;20478;-24
2022/08/23 06:53:55;;;;;;;2.15;1.67;;;23.90;77.80;;;;;;5054754;28;20051;-24
2022/08/23 06:56:23;;;;;;;3.05;1.80;;;23.90;77.80;;;;;;5054538;28;20021;-24
2022/08/23 06:58:49;;;;;;;2.20;1.60;;;23.90;77.80;;;;;;5054369;28;20414;-24
2022/08/23 07:01:31;;;;;;;1.92;1.80;;;23.90;77.80;;;;;;5054904;28;20036;-24
2022/08/23 07:03:58;;;;;;;1.92;1.73;;;23.90;77.80;;;;;;5054412;28;20044;-25
2022/08/23 07:06:27;;;;;;;2.58;1.40;;;23.90;77.80;;;;;;5054377;28;20060;-24
2022/08/23 07:08:53;;;;;;;1.83;1.58;;;23.90;77.90;;;;;;5054340;28;20029;-24
2022/08/23 07:11:20;;;;;;;1.92;1.67;;;23.90;77.90;;;;;;5054361;28;20025;-24
2022/08/23 07:13:46;;;;;;;5.10;1.77;;;23.90;77.90;;;;;;5054251;28;20389;-24
2022/08/23 07:16:13;;;;;;;1.90;1.67;;;23.90;78.00;;;;;;5054185;28;20030;-24
2022/08/23 07:18:38;;;;;;;2.10;1.80;;;23.90;78.10;;;;;;5054018;28;20409;-24
2022/08/23 07:21:05;;;;;;;1.88;1.40;;;23.90;78.10;;;;;;5054080;28;20105;-24
2022/08/23 07:23:33;;;;;;;2.85;1.77;;;23.90;78.20;;;;;;5054285;28;20053;-24
2022/08/23 07:26:00;;;;;;;2.17;1.50;;;23.90;78.20;;;;;;5053995;28;20025;-24
2022/08/23 07:28:27;;;;;;;2.65;1.70;;;23.90;78.20;;;;;;5053997;28;20029;-24
2022/08/23 07:30:57;;;;;;;2.20;1.90;;;24.00;78.30;;;;;;5053826;28;20036;-24
2022/08/23 07:33:23;;;;;;;2.35;1.70;;;24.00;78.30;;;;;;5054251;28;20017;-24
2022/08/23 07:35:49;;;;;;;1.88;1.60;;;24.00;78.30;;;;;;5053812;28;20098;-25
2022/08/23 07:38:16;;;;;;;2.08;1.75;;;24.00;78.30;;;;;;5053899;28;20025;-24
2022/08/23 07:40:43;;;;;;;2.08;1.52;;;24.00;78.20;;;;;;5053710;28;20029;-25
2022/08/23 07:43:10;;;;;;;2.47;1.70;;;24.10;78.10;;;;;;5053730;28;20025;-24
2022/08/23 07:45:36;;;;;;;2.55;1.67;;;24.10;78.00;;;;;;5053635;28;20485;-24
2022/08/23 07:48:02;;;;;;;1.85;1.50;;;24.10;78.00;;;;;;5053847;28;20027;-24
2022/08/23 07:50:28;;;;;;;1.58;1.48;;;24.10;78.00;;;;;;5053380;28;20056;-24
2022/08/23 07:52:54;;;;;;;1.75;1.50;;;24.20;78.00;;;;;;5053632;28;20101;-24
2022/08/23 07:55:20;;;;;;;2.03;1.70;;;24.20;78.00;;;;;;5035566;28;20053;-24
2022/08/23 07:57:46;;;;;;;1.83;1.50;;;24.20;78.00;;;;;;5053396;28;20108;-24
2022/08/23 08:00:12;;;;;;;2.10;1.40;;;24.20;77.90;;;;;;5053171;28;20096;-24
2022/08/23 08:02:38;;;;;;;1.77;1.45;;;24.20;77.90;;;;;;5053333;28;20025;-24
2022/08/23 08:05:04;;;;;;;2.08;1.50;;;24.20;77.80;;;;;;5053262;28;20412;-24
2022/08/23 08:07:30;;;;;;;2.10;1.50;;;24.20;77.80;;;;;;5053158;28;20394;-24
2022/08/23 08:09:56;;;;;;;2.17;1.60;;;24.20;77.80;;;;;;5053073;28;20021;-24
2022/08/23 08:12:22;;;;;;;1.55;1.42;;;24.30;77.80;;;;;;5053207;28;20055;-24
2022/08/23 08:14:48;;;;;;;2.22;1.50;;;24.20;77.60;;;;;;5053040;28;20021;-25
2022/08/23 08:17:16;;;;;;;1.77;1.40;;;24.30;77.70;;;;;;5052958;28;20029;-24
2022/08/23 08:19:42;;;;;;;1.42;1.33;;;24.30;77.70;;;;;;5052896;28;20025;-24
2022/08/23 08:22:08;;;;;;;2.67;1.67;;;24.30;77.60;;;;;;5034970;28;20033;-24
2022/08/23 08:24:34;;;;;;;1.95;1.50;;;24.30;77.60;;;;;;5052947;28;20112;-25
2022/08/23 08:26:59;;;;;;;1.60;1.45;;;24.30;77.50;;;;;;5052608;28;20090;-24
2022/08/23 08:29:25;;;;;;;1.67;1.40;;;24.40;77.60;;;;;;5052532;28;20071;-24
2022/08/23 08:31:51;;;;;;;1.85;1.65;;;24.40;77.60;;;;;;5052707;28;20021;-24
2022/08/23 08:34:19;;;;;;;2.10;1.63;;;24.30;77.50;;;;;;5052702;28;20029;-24
2022/08/23 08:36:49;;;;;;;1.80;1.40;;;24.40;77.60;;;;;;5052779;28;20025;-24
2022/08/23 08:39:18;;;;;;;1.60;1.38;;;24.40;77.60;;;;;;5052605;28;20017;-24
2022/08/23 08:41:58;;;;;;;2.20;1.50;;;24.40;77.60;;;;;;5052416;28;20029;-24
2022/08/23 08:44:50;;;;;;;3.20;1.42;;;24.40;77.50;;;;;;5052796;28;20135;-24
2022/08/23 08:47:27;;;;;;;3.85;1.50;;;24.40;75.60;;;;;;5052419;28;20029;-24
2022/08/23 08:50:05;;;;;;;2.50;1.60;;;24.40;75.80;;;;;;5052459;28;20032;-26
2022/08/23 08:52:56;;;;;;;2.60;1.70;;;24.50;76.20;;;;;;5052495;28;20021;-24
2022/08/23 08:55:27;;;;;;;3.28;1.50;;;24.50;76.20;;;;;;5051314;28;20037;-24
2022/08/23 08:57:54;;;;;;;3.97;1.70;;;24.50;76.20;;;;;;5052318;28;20036;-24
2022/08/23 09:00:32;;;;;;;3.47;1.70;;;24.50;76.30;;;;;;5052058;28;20363;-25
2022/08/23 09:03:03;;;;;;;2.70;1.75;;;24.50;76.30;;;;;;5052308;28;20017;-24
2022/08/23 09:05:35;;;;;;;2.88;1.60;;;24.50;76.30;;;;;;5052170;28;20021;-24
2022/08/23 09:08:07;;;;;;;2.17;1.30;;;24.50;76.30;;;;;;5052041;28;20212;-24
2022/08/23 09:10:46;;;;;;;2.30;1.48;;;24.50;76.30;;;;;;5051925;28;20017;-24
2022/08/23 09:13:40;;;;;;;3.13;1.40;;;24.60;76.30;;;;;;5052352;28;20052;-24
2022/08/23 09:16:32;;;;;;;1.95;1.50;;;24.60;76.30;;;;;;5051992;28;20092;-25
2022/08/23 09:19:01;;;;;;;2.22;1.30;;;24.60;76.30;;;;;;5051918;28;20104;-24
2022/08/23 09:21:39;;;;;;;2.17;1.48;;;24.70;76.20;;;;;;5051737;28;20478;-25
2022/08/23 09:24:05;;;;;;;2.45;1.50;;;24.70;76.20;;;;;;5052036;28;20025;-24
2022/08/23 09:26:30;;;;;;;2.08;1.33;;;24.70;76.10;;;;;;5051710;28;20029;-24
2022/08/23 09:29:13;;;;;;;3.90;1.70;;;24.70;76.10;;;;;;5051720;28;20056;-25
2022/08/23 09:31:52;;;;;;;1.85;1.40;;;24.70;76.10;;;;;;5051827;28;20025;-24
2022/08/23 09:34:28;;;;;;;1.77;1.42;;;24.70;76.00;;;;;;5051873;28;20100;-24
2022/08/23 09:37:08;;;;;;;2.45;1.25;;;24.70;76.00;;;;;;5051801;28;20032;-24
2022/08/23 09:39:48;;;;;;;2.88;1.83;;;24.80;76.10;;;;;;5051664;28;20025;-24
2022/08/23 09:42:34;;;;;;;2.13;1.35;;;24.80;76.00;;;;;;5051684;28;20079;-24
2022/08/23 09:45:00;;;;;;;2.13;1.30;;;24.80;76.00;;;;;;5051840;28;20444;-24
2022/08/23 09:47:39;;;;;;;2.22;1.42;;;24.80;75.90;;;;;;5051557;28;20029;-24
2022/08/23 09:50:26;;;;;;;2.58;1.30;;;24.90;75.90;;;;;;5051606;28;20478;-24
2022/08/23 09:53:02;;;;;;;2.50;1.40;;;24.90;75.90;;;;;;5051546;28;20037;-24
2022/08/23 09:55:51;;;;;;;2.42;1.50;;;24.90;75.80;;;;;;5051679;28;20100;-25
2022/08/23 09:58:39;;;;;;;2.85;1.50;;;24.90;75.80;;;;;;5051602;28;20025;-24
2022/08/23 10:01:24;;;;;;;2.45;1.17;;;24.90;75.80;;;;;;5051397;28;20017;-24
2022/08/23 10:04:15;;;;;;;1.98;1.40;;;25.00;75.80;;;;;;5051595;28;20021;-24
2022/08/23 10:06:44;;;;;;;2.15;1.60;;;25.00;75.70;;;;;;5051444;28;20037;-24
2022/08/23 10:09:31;;;;;;;3.17;1.40;;;25.00;75.70;;;;;;5054043;28;20017;-24
2022/08/23 10:11:59;;;;;;;1.70;1.17;;;25.00;75.60;;;;;;5055331;28;20025;-24
2022/08/23 10:14:26;;;;;;;1.88;1.10;;;25.00;75.60;;;;;;5055331;28;20025;-25
2022/08/23 10:17:19;;;;;;;1.98;1.30;;;25.00;75.60;;;;;;5055055;28;20035;-25
2022/08/23 10:20:10;;;;;;;2.17;1.42;;;25.00;75.50;;;;;;5055073;28;20025;-24
2022/08/23 10:22:48;;;;;;;1.50;1.20;;;25.10;75.50;;;;;;5055254;28;20096;-24
2022/08/23 10:25:45;;;;;;;1.90;1.10;;;25.10;75.40;;;;;;5055136;28;20108;-25
2022/08/23 10:31:21;;;;;;;2.97;1.52;;;25.20;75.40;;;;;;5055045;28;20039;-25
2022/08/23 10:34:17;;;;;;;1.92;1.25;;;25.20;75.30;;;;;;5055452;28;20078;-24
2022/08/23 10:37:10;;;;;;;1.63;1.30;;;25.20;75.20;;;;;;5054865;28;20082;-24
2022/08/23 10:39:45;;;;;;;1.73;1.13;;;25.20;75.20;;;;;;5054817;28;20020;-24
2022/08/23 10:42:28;;;;;;;2.42;1.30;;;25.20;75.20;;;;;;5054734;28;20410;-24
2022/08/23 10:45:15;;;;;;;2.37;1.40;;;25.20;75.00;;;;;;5054646;28;20017;-24
2022/08/23 10:48:00;;;;;;;2.05;1.20;;;25.20;75.10;;;;;;5054770;28;20021;-24
2022/08/23 10:50:30;;;;;;;1.92;1.27;;;25.20;75.20;;;;;;5054469;28;20017;-24
2022/08/23 10:53:06;;;;;;;4.63;1.30;;;25.30;75.20;;;;;;5036555;28;20025;-25
2022/08/23 10:56:01;;;;;;;10.98;1.27;;;25.40;69.10;;;;;;5054553;28;20020;-24
2022/08/23 10:58:33;;;;;;;6.75;1.50;;;25.50;67.70;;;;;;5054738;28;20024;-25
2022/08/23 11:01:00;;;;;;;5.10;1.38;;;25.60;68.20;;;;;;5036499;28;20031;-24
2022/08/23 11:03:32;;;;;;;5.22;1.75;;;25.60;68.80;;;;;;5054328;28;20025;-25
2022/08/23 11:06:35;;;;;;;3.58;1.33;;;25.60;69.30;;;;;;5054240;28;20024;-25
2022/08/23 11:09:18;;;;;;;6.10;1.50;;;25.60;69.70;;;;;;5054182;28;20036;-24
2022/08/23 11:12:05;;;;;;;3.58;1.20;;;25.60;70.10;;;;;;5054549;28;20025;-25
2022/08/23 11:14:31;;;;;;;2.78;1.17;;;25.60;70.40;;;;;;5054307;28;20021;-25
2022/08/23 11:16:59;;;;;;;3.47;1.33;;;25.50;70.60;;;;;;5054086;28;20032;-24
2022/08/23 11:19:46;;;;;;;3.53;1.50;;;25.50;70.80;;;;;;5053467;28;20108;-25
2022/08/23 11:22:25;;;;;;;2.80;1.10;;;25.50;71.00;;;;;;5054205;28;20437;-24
2022/08/23 11:24:55;;;;;;;2.70;1.35;;;25.50;71.20;;;;;;5054059;28;20025;-24
2022/08/23 11:27:39;;;;;;;3.58;1.23;;;25.50;71.50;;;;;;5070812;22;20132;-23
2022/08/23 11:30:35;;;;;;;2.70;1.50;;;25.50;71.60;;;;;;5034400;28;20546;-23
2022/08/23 11:33:45;;;;;;;1.90;1.15;;;25.60;71.80;;;;;;5034161;28;20107;-23
2022/08/23 11:36:16;;;;;;;2.25;1.27;;;25.60;71.80;;;;;;4953716;29;20035;-22
2022/08/23 11:38:48;;;;;;;2.55;1.20;;;25.60;71.90;;;;;;5025335;28;20521;-23
2022/08/23 11:41:13;;;;;;;3.58;1.25;;;25.60;72.00;;;;;;5033732;28;20491;-23
2022/08/23 11:43:42;;;;;;;3.70;1.08;;;25.60;72.00;;;;;;5033773;28;20108;-23
2022/08/23 11:46:26;;;;;;;5.20;1.30;;;25.60;72.00;;;;;;5033995;28;20033;-23
2022/08/23 11:49:16;;;;;;;2.88;1.13;;;25.60;72.10;;;;;;5033704;28;20078;-23
2022/08/23 11:51:54;;;;;;;2.33;1.10;;;25.60;72.10;;;;;;5033750;28;20033;-23
2022/08/23 11:55:16;;;;;;;3.00;1.27;;;25.70;72.30;;;;;;5034222;28;20033;-23
2022/08/23 11:58:02;;;;;;;1.65;0.95;;;25.60;72.10;;;;;;4954232;29;20027;-23
2022/08/23 12:01:05;;;;;;;1.40;1.08;;;25.60;72.30;;;;;;5016652;28;20379;-23
2022/08/23 12:03:57;;;;;;;4.80;1.30;;;25.70;72.50;;;;;;5033477;28;20025;-23
2022/08/23 12:06:38;;;;;;;2.90;1.15;;;25.60;72.40;;;;;;5033379;28;20025;-23
2022/08/23 12:09:21;;;;;;;2.05;1.20;;;25.70;72.60;;;;;;5033663;28;20021;-23
2022/08/23 12:11:56;;;;;;;1.88;1.00;;;25.70;72.50;;;;;;5033316;28;20026;-23
2022/08/23 12:14:35;;;;;;;1.17;0.85;;;25.70;72.50;;;;;;5033442;28;20044;-23
2022/08/23 12:17:27;;;;;;;3.70;1.00;;;25.70;72.50;;;;;;5033076;28;20034;-23
2022/08/23 12:20:27;;;;;;;1.50;1.20;;;25.70;72.50;;;;;;5033002;28;20073;-23
2022/08/23 12:23:06;;;;;;;2.55;1.10;;;25.70;72.50;;;;;;5033216;28;20030;-23
2022/08/23 12:25:32;;;;;;;1.75;1.00;;;25.80;72.50;;;;;;5032887;28;20029;-23
2022/08/23 12:28:28;;;;;;;2.15;1.20;;;25.80;72.60;;;;;;5032929;28;20035;-23
2022/08/23 12:31:03;;;;;;;1.85;1.00;;;25.70;72.50;;;;;;5019969;28;20033;-23
2022/08/23 12:33:32;;;;;;;1.95;1.15;;;25.70;72.50;;;;;;5032901;28;20477;-23
2022/08/23 12:36:16;;;;;;;1.38;1.10;;;25.70;72.50;;;;;;5032972;28;20040;-23
2022/08/23 12:39:03;;;;;;;1.77;0.95;;;25.70;72.50;;;;;;5032806;28;20072;-23
2022/08/23 12:41:49;;;;;;;4.00;1.17;;;25.70;72.60;;;;;;5033169;28;20037;-23
2022/08/23 12:44:20;;;;;;;1.70;0.98;;;25.80;72.70;;;;;;5032654;28;20033;-23
2022/08/23 12:46:48;;;;;;;1.60;1.00;;;25.80;72.70;;;;;;5032766;28;20100;-23
2022/08/23 12:49:30;;;;;;;3.72;1.08;;;25.80;72.70;;;;;;5032645;28;20025;-23
2022/08/23 12:51:59;;;;;;;3.35;1.17;;;25.80;72.70;;;;;;5032738;28;20372;-23
2022/08/23 12:54:45;;;;;;;2.53;0.90;;;25.80;72.70;;;;;;5032549;28;20022;-23
2022/08/23 12:57:18;;;;;;;1.83;1.08;;;25.80;72.70;;;;;;5032672;28;20362;-23
2022/08/23 13:00:13;;;;;;;3.00;1.13;;;25.90;72.70;;;;;;5014621;28;20032;-23
2022/08/23 13:02:43;;;;;;;1.50;0.95;;;25.80;72.50;;;;;;5032587;28;20033;-24
2022/08/23 13:05:37;;;;;;;2.90;1.20;;;25.90;72.60;;;;;;5032596;28;20028;-25
2022/08/23 13:08:09;;;;;;;1.75;0.80;;;25.90;72.60;;;;;;5032351;28;20029;-23
2022/08/23 13:10:37;;;;;;;3.20;1.10;;;25.90;72.70;;;;;;5032223;28;20026;-23
2022/08/23 13:13:03;;;;;;;1.40;0.82;;;25.80;72.60;;;;;;5032343;28;20497;-23
2022/08/23 13:15:40;;;;;;;2.55;1.10;;;25.90;72.70;;;;;;5032354;28;20116;-23
2022/08/23 13:18:05;;;;;;;2.25;1.00;;;25.90;72.70;;;;;;5032184;28;20498;-23
2022/08/23 13:20:31;;;;;;;1.40;0.90;;;25.90;72.50;;;;;;5032151;28;20037;-23
2022/08/23 13:22:57;;;;;;;1.63;0.80;;;25.90;72.40;;;;;;5032240;28;20490;-23
2022/08/23 13:25:32;;;;;;;1.52;1.13;;;25.90;72.40;;;;;;5032204;28;20049;-23